Weather at Newcastle (Morgan's Road) Heliport

Public forecast

Using degrees Celsius for public forecast. Weather courtesy of forecast.io.

Closest aviation weather report (METAR) to Newcastle (Morgan's Road) Heliport

Closest report is Oshawa Executive Airport, 15.8 nm (29.3 km) W.

2023/09/22 15:00 (retrieved 46 minutes ago)

CYOO 221500Z AUTO 13008KT 100V170 9SM CLR 19/13 A3036 RMK SLP283

Closest aviation forecast (TAF) to Newcastle (Morgan's Road) Heliport

Closest forecast is Oshawa Executive Airport, 15.8 nm (29.3 km) W.

2023/09/22 14:00 (retrieved 2 hours ago)

TAF CYOO 221340Z 2214/2302 09010KT P6SM SCT040 FM222000 09010KT P6SM SKC RMK FCST BASED ON AUTO OBS NXT FCST BY 222000Z